Time;durP1;ratioP1;P1;durP2;ratioP2;P2;SDS_P1;SDS_P2;PMS_P1;PMS_P2;Temp;Humidity;BMP_temperature;BMP_pressure;BME280_temperature;BME280_humidity;BME280_pressure;Samples;Min_cycle;Max_cycle;Signal;HPM_P1;HPM_P2
2021/07/06 00:01:30;;;;;;;9.13;1.85;;;;;;;;;;5200245;27;20184;-66
2021/07/06 00:03:56;;;;;;;3.22;2.25;;;;;;;;;;5199958;27;20385;-66
2021/07/06 00:06:22;;;;;;;2.22;2.03;;;;;;;;;;5200207;27;20116;-66
2021/07/06 00:08:48;;;;;;;1.90;1.80;;;;;;;;;;5200111;27;20478;-65
2021/07/06 00:11:13;;;;;;;2.22;1.98;;;;;;;;;;5200104;27;20421;-65
2021/07/06 00:13:39;;;;;;;2.60;1.83;;;;;;;;;;5200359;27;20105;-66
2021/07/06 00:16:05;;;;;;;5.75;2.08;;;;;;;;;;5180821;27;20135;-65
2021/07/06 00:18:31;;;;;;;2.12;1.95;;;;;;;;;;5200315;27;20110;-66
2021/07/06 00:21:00;;;;;;;2.58;1.80;;;;;;;;;;5200313;27;20590;-66
2021/07/06 00:23:29;;;;;;;4.30;2.30;;;;;;;;;;5199914;27;20093;-66
2021/07/06 00:25:55;;;;;;;4.53;1.92;;;;;;;;;;5200183;27;20141;-66
2021/07/06 00:28:23;;;;;;;3.75;2.17;;;;;;;;;;5200121;27;20112;-66
2021/07/06 00:30:50;;;;;;;7.12;1.90;;;;;;;;;;5200066;27;20184;-66
2021/07/06 00:33:16;;;;;;;3.62;1.90;;;;;;;;;;5180961;27;20385;-66
2021/07/06 00:35:42;;;;;;;4.90;1.80;;;;;;;;;;5200117;27;20088;-66
2021/07/06 00:38:09;;;;;;;7.65;2.22;;;;;;;;;;5200174;27;20503;-66
2021/07/06 00:40:35;;;;;;;3.60;1.80;;;;;;;;;;5200307;27;20096;-66
2021/07/06 00:43:01;;;;;;;8.52;1.80;;;;;;;;;;5182189;27;20103;-66
2021/07/06 00:45:27;;;;;;;2.37;1.98;;;;;;;;;;5201265;27;20086;-66
2021/07/06 00:47:53;;;;;;;2.33;2.12;;;;;;;;;;5201385;27;20471;-66
2021/07/06 00:50:22;;;;;;;2.20;2.00;;;;;;;;;;5181810;27;20081;-66
2021/07/06 00:52:49;;;;;;;3.12;1.70;;;;;;;;;;5201474;27;20186;-67
2021/07/06 00:55:15;;;;;;;2.30;2.10;;;;;;;;;;5201187;27;20597;-67
2021/07/06 00:57:41;;;;;;;2.83;2.00;;;;;;;;;;5182187;27;20101;-65
2021/07/06 01:00:16;;;;;;;2.08;1.67;;;;;;;;;;5201652;27;20089;-65
2021/07/06 01:02:42;;;;;;;4.82;1.92;;;;;;;;;;5201157;27;20169;-65
2021/07/06 01:05:09;;;;;;;2.90;2.62;;;;;;;;;;5181984;27;20146;-65
2021/07/06 01:07:35;;;;;;;2.80;1.90;;;;;;;;;;5201346;27;20105;-65
2021/07/06 01:10:02;;;;;;;3.30;1.95;;;;;;;;;;5201212;27;20413;-65
2021/07/06 01:12:31;;;;;;;2.62;1.95;;;;;;;;;;5201177;27;20060;-65
2021/07/06 01:15:04;;;;;;;5.72;1.90;;;;;;;;;;5200867;27;20473;-65
2021/07/06 01:17:30;;;;;;;5.47;2.08;;;;;;;;;;5201326;27;20182;-64
2021/07/06 01:20:04;;;;;;;2.17;1.80;;;;;;;;;;5201138;27;20074;-65
2021/07/06 01:22:31;;;;;;;6.45;2.15;;;;;;;;;;5201288;27;20078;-65
2021/07/06 01:24:58;;;;;;;2.30;2.10;;;;;;;;;;5201267;27;20073;-65
2021/07/06 01:27:24;;;;;;;6.60;2.15;;;;;;;;;;5201145;27;20105;-68
2021/07/06 01:29:50;;;;;;;5.55;1.90;;;;;;;;;;5201301;27;20424;-68
2021/07/06 01:32:16;;;;;;;2.47;1.75;;;;;;;;;;5201364;27;20500;-68
2021/07/06 01:34:42;;;;;;;4.55;2.22;;;;;;;;;;5200930;27;20108;-68
2021/07/06 01:37:09;;;;;;;3.08;2.03;;;;;;;;;;5201044;27;20109;-68
2021/07/06 01:39:35;;;;;;;3.95;2.22;;;;;;;;;;5200914;27;20092;-68
2021/07/06 01:42:01;;;;;;;1.98;1.80;;;;;;;;;;5182122;27;20089;-68
2021/07/06 01:44:27;;;;;;;3.65;1.83;;;;;;;;;;5200892;27;20086;-68
2021/07/06 01:46:54;;;;;;;2.95;2.20;;;;;;;;;;5181699;27;20178;-68
2021/07/06 01:49:20;;;;;;;2.15;1.77;;;;;;;;;;5201085;27;20424;-68
2021/07/06 01:51:46;;;;;;;2.20;2.00;;;;;;;;;;5181909;27;20085;-68
2021/07/06 01:54:13;;;;;;;2.25;2.00;;;;;;;;;;5181630;27;20093;-68
2021/07/06 01:56:41;;;;;;;2.33;1.80;;;;;;;;;;5147454;27;20108;-67
2021/07/06 01:59:07;;;;;;;2.47;2.20;;;;;;;;;;5200543;27;20061;-67
2021/07/06 02:01:34;;;;;;;5.37;1.90;;;;;;;;;;5180473;27;20092;-65
2021/07/06 02:04:00;;;;;;;3.37;2.22;;;;;;;;;;5200650;27;20502;-65
2021/07/06 02:06:27;;;;;;;3.83;2.00;;;;;;;;;;5181822;27;20171;-65
2021/07/06 02:08:53;;;;;;;2.65;2.10;;;;;;;;;;5200533;27;20534;-66
2021/07/06 02:11:19;;;;;;;3.17;2.22;;;;;;;;;;5200907;27;20093;-65
2021/07/06 02:13:45;;;;;;;4.60;2.45;;;;;;;;;;5180636;27;20488;-66
2021/07/06 02:16:11;;;;;;;1.92;1.75;;;;;;;;;;5164038;27;20089;-66
2021/07/06 02:18:37;;;;;;;4.70;2.00;;;;;;;;;;5181523;27;20101;-67
2021/07/06 02:21:03;;;;;;;6.93;1.83;;;;;;;;;;5200669;27;20077;-67
2021/07/06 02:23:30;;;;;;;3.17;2.20;;;;;;;;;;5180619;27;20089;-67
2021/07/06 02:26:03;;;;;;;3.42;1.83;;;;;;;;;;5181201;27;20203;-68
2021/07/06 02:28:29;;;;;;;3.42;1.77;;;;;;;;;;5199886;27;20068;-66
2021/07/06 02:30:55;;;;;;;8.32;2.10;;;;;;;;;;5181599;27;20232;-66
2021/07/06 02:33:22;;;;;;;2.08;1.83;;;;;;;;;;5200630;27;20104;-66
2021/07/06 02:35:48;;;;;;;2.28;2.05;;;;;;;;;;5200199;27;20081;-65
2021/07/06 02:38:14;;;;;;;4.15;2.28;;;;;;;;;;5200344;27;20168;-66
2021/07/06 02:40:40;;;;;;;2.08;1.70;;;;;;;;;;5200595;27;20089;-66
2021/07/06 02:43:06;;;;;;;4.57;2.05;;;;;;;;;;5200475;27;20093;-66
2021/07/06 02:45:32;;;;;;;2.00;1.77;;;;;;;;;;5200489;27;20116;-67
2021/07/06 02:47:58;;;;;;;3.25;2.10;;;;;;;;;;5199931;27;20494;-67
2021/07/06 02:50:25;;;;;;;2.75;2.08;;;;;;;;;;5200538;27;20072;-66
2021/07/06 02:52:51;;;;;;;7.03;2.75;;;;;;;;;;5200708;27;20730;-67
2021/07/06 02:55:18;;;;;;;3.00;2.05;;;;;;;;;;5181327;27;20161;-66
2021/07/06 02:57:44;;;;;;;8.18;1.90;;;;;;;;;;5200424;27;20579;-67
2021/07/06 03:00:16;;;;;;;3.37;1.77;;;;;;;;;;5199537;27;20535;-67
2021/07/06 03:02:44;;;;;;;5.93;1.80;;;;;;;;;;5199357;27;20074;-66
2021/07/06 03:05:10;;;;;;;2.58;2.10;;;;;;;;;;5198801;27;20549;-66
2021/07/06 03:07:37;;;;;;;2.92;2.10;;;;;;;;;;5198388;27;20092;-66
2021/07/06 03:10:04;;;;;;;4.10;1.90;;;;;;;;;;5198220;27;20088;-65
2021/07/06 03:12:30;;;;;;;1.80;1.60;;;;;;;;;;5198527;27;20080;-66
2021/07/06 03:14:56;;;;;;;6.03;2.85;;;;;;;;;;5198891;27;20488;-66
2021/07/06 03:17:21;;;;;;;5.57;2.10;;;;;;;;;;5200607;27;20074;-66
2021/07/06 03:19:47;;;;;;;3.65;2.10;;;;;;;;;;5200711;27;20061;-65
2021/07/06 03:22:13;;;;;;;2.80;1.80;;;;;;;;;;5200639;27;20096;-64
2021/07/06 03:24:39;;;;;;;3.58;1.98;;;;;;;;;;5200391;27;20096;-64
2021/07/06 03:27:05;;;;;;;4.55;2.05;;;;;;;;;;5200318;27;20116;-65
2021/07/06 03:29:31;;;;;;;8.68;1.80;;;;;;;;;;5200375;27;20456;-66
2021/07/06 03:31:57;;;;;;;2.35;1.80;;;;;;;;;;5200300;27;20112;-67
2021/07/06 03:34:23;;;;;;;3.28;1.80;;;;;;;;;;5200562;27;20094;-66
2021/07/06 03:36:49;;;;;;;9.82;2.40;;;;;;;;;;5200360;27;20093;-66
2021/07/06 03:39:14;;;;;;;5.35;1.98;;;;;;;;;;5200163;27;20073;-66
2021/07/06 03:41:41;;;;;;;7.00;2.00;;;;;;;;;;5200166;27;20432;-66
2021/07/06 03:44:06;;;;;;;2.22;1.55;;;;;;;;;;5200079;27;20485;-66
2021/07/06 03:46:32;;;;;;;1.73;1.62;;;;;;;;;;5200253;27;20107;-66
2021/07/06 03:49:00;;;;;;;5.37;2.00;;;;;;;;;;5200109;27;20163;-66
2021/07/06 03:51:26;;;;;;;2.78;1.85;;;;;;;;;;5200281;27;20420;-66
2021/07/06 03:53:52;;;;;;;6.68;2.00;;;;;;;;;;5180855;27;20173;-65
2021/07/06 03:56:18;;;;;;;1.87;1.30;;;;;;;;;;5200034;27;20104;-65
2021/07/06 03:58:43;;;;;;;3.55;2.45;;;;;;;;;;5200528;27;20153;-66
2021/07/06 04:01:09;;;;;;;15.82;4.05;;;;;;;;;;5200348;27;20086;-66
2021/07/06 04:03:35;;;;;;;3.67;1.98;;;;;;;;;;5200129;27;20157;-66
2021/07/06 04:06:01;;;;;;;1.77;1.55;;;;;;;;;;5200062;27;20168;-65
2021/07/06 04:08:27;;;;;;;5.45;2.10;;;;;;;;;;5200222;27;20510;-65
2021/07/06 04:10:53;;;;;;;4.22;1.80;;;;;;;;;;5200202;27;20097;-64
2021/07/06 04:13:18;;;;;;;3.58;2.55;;;;;;;;;;5200363;27;20100;-64
2021/07/06 04:15:44;;;;;;;2.60;1.90;;;;;;;;;;5200894;27;20093;-65
2021/07/06 04:18:10;;;;;;;2.62;2.20;;;;;;;;;;5201598;27;20100;-65
2021/07/06 04:20:36;;;;;;;2.67;2.08;;;;;;;;;;5201773;27;20093;-65
2021/07/06 04:23:02;;;;;;;3.00;2.00;;;;;;;;;;5201622;27;20723;-65
2021/07/06 04:25:30;;;;;;;6.25;1.87;;;;;;;;;;5201532;27;20062;-64
2021/07/06 04:27:56;;;;;;;1.92;1.37;;;;;;;;;;5201513;27;20165;-64
2021/07/06 04:30:22;;;;;;;4.20;2.10;;;;;;;;;;5201647;27;20066;-65
2021/07/06 04:32:48;;;;;;;7.68;2.62;;;;;;;;;;5201508;27;20097;-66
2021/07/06 04:35:14;;;;;;;6.43;2.20;;;;;;;;;;5201306;27;20090;-67
2021/07/06 04:37:41;;;;;;;2.00;1.60;;;;;;;;;;5201514;27;20101;-66
2021/07/06 04:40:07;;;;;;;2.45;2.10;;;;;;;;;;5201418;27;20538;-68
2021/07/06 04:42:33;;;;;;;5.22;1.80;;;;;;;;;;5201703;27;20128;-68
2021/07/06 04:44:59;;;;;;;5.10;2.10;;;;;;;;;;5182275;27;20066;-68
2021/07/06 04:47:25;;;;;;;1.27;1.10;;;;;;;;;;5201376;27;20105;-68
2021/07/06 04:49:51;;;;;;;1.33;1.23;;;;;;;;;;5182182;27;20089;-67
2021/07/06 04:52:16;;;;;;;2.87;2.08;;;;;;;;;;5201507;27;20177;-66
2021/07/06 04:54:42;;;;;;;5.87;2.67;;;;;;;;;;5201416;27;20088;-66
2021/07/06 04:57:08;;;;;;;2.87;1.85;;;;;;;;;;5201490;27;20131;-66
2021/07/06 04:59:34;;;;;;;2.50;2.30;;;;;;;;;;5201331;27;20188;-66
2021/07/06 05:02:00;;;;;;;2.15;1.77;;;;;;;;;;5201175;27;20112;-66
2021/07/06 05:04:28;;;;;;;3.83;2.30;;;;;;;;;;5181946;27;20074;-64
2021/07/06 05:06:54;;;;;;;3.42;2.10;;;;;;;;;;5201361;27;20097;-64
2021/07/06 05:09:19;;;;;;;3.72;2.17;;;;;;;;;;5201175;27;20097;-65
2021/07/06 05:11:45;;;;;;;2.20;2.00;;;;;;;;;;5182030;27;20098;-65
2021/07/06 05:14:11;;;;;;;8.20;2.42;;;;;;;;;;5201438;27;20120;-65
2021/07/06 05:16:37;;;;;;;4.47;2.15;;;;;;;;;;5201089;27;20069;-65
2021/07/06 05:19:03;;;;;;;12.05;2.55;;;;;;;;;;5201298;27;20065;-65
2021/07/06 05:21:29;;;;;;;2.28;2.08;;;;;;;;;;5201458;27;20101;-65
2021/07/06 05:23:55;;;;;;;1.73;1.62;;;;;;;;;;5200915;27;20073;-65
2021/07/06 05:26:20;;;;;;;3.50;2.03;;;;;;;;;;5200988;27;20194;-65
2021/07/06 05:28:46;;;;;;;1.77;1.55;;;;;;;;;;5201083;27;20187;-66
2021/07/06 05:31:12;;;;;;;5.93;2.25;;;;;;;;;;5201103;27;20101;-65
2021/07/06 05:33:38;;;;;;;9.65;2.17;;;;;;;;;;5201051;27;20073;-64
2021/07/06 05:36:05;;;;;;;2.97;2.33;;;;;;;;;;5201057;27;20072;-64
2021/07/06 05:38:31;;;;;;;3.95;2.40;;;;;;;;;;5201062;27;20058;-65
2021/07/06 05:40:57;;;;;;;3.83;2.58;;;;;;;;;;5201375;27;20147;-63
2021/07/06 05:43:23;;;;;;;3.60;2.78;;;;;;;;;;5181745;27;20093;-63
2021/07/06 05:45:53;;;;;;;3.80;2.28;;;;;;;;;;5200897;27;20108;-63
2021/07/06 05:48:19;;;;;;;3.65;3.12;;;;;;;;;;5181726;27;20472;-63
2021/07/06 05:50:45;;;;;;;4.90;2.58;;;;;;;;;;5200838;27;20085;-63
2021/07/06 05:53:11;;;;;;;1.87;1.77;;;;;;;;;;5200931;27;20092;-63
2021/07/06 05:55:38;;;;;;;4.82;2.62;;;;;;;;;;5200826;27;20066;-65
2021/07/06 05:58:04;;;;;;;2.62;2.37;;;;;;;;;;5200948;27;20171;-65
2021/07/06 06:00:30;;;;;;;5.45;2.80;;;;;;;;;;5200845;27;20094;-65
2021/07/06 06:02:56;;;;;;;2.92;2.30;;;;;;;;;;5201199;27;20104;-65
2021/07/06 06:05:22;;;;;;;3.45;2.60;;;;;;;;;;5200999;27;20401;-66
2021/07/06 06:07:51;;;;;;;2.55;2.12;;;;;;;;;;5200873;27;20093;-66
2021/07/06 06:10:17;;;;;;;2.90;2.62;;;;;;;;;;5200950;27;20081;-65
2021/07/06 06:12:42;;;;;;;4.03;2.80;;;;;;;;;;5200801;27;20090;-64
2021/07/06 06:15:09;;;;;;;5.85;3.08;;;;;;;;;;5200511;27;20077;-63
2021/07/06 06:17:36;;;;;;;6.28;2.60;;;;;;;;;;5200854;27;20058;-65
2021/07/06 06:20:05;;;;;;;2.90;2.42;;;;;;;;;;5200795;27;20081;-67
2021/07/06 06:22:31;;;;;;;3.15;2.60;;;;;;;;;;5200743;27;20072;-64
2021/07/06 06:24:57;;;;;;;3.62;2.60;;;;;;;;;;5200747;27;20077;-66
2021/07/06 06:27:23;;;;;;;7.68;3.20;;;;;;;;;;5200959;27;20179;-66
2021/07/06 06:29:49;;;;;;;7.68;3.20;;;;;;;;;;5200520;27;20082;-66
2021/07/06 06:32:16;;;;;;;7.32;3.30;;;;;;;;;;5200741;27;20105;-66
2021/07/06 06:34:43;;;;;;;42.05;8.73;;;;;;;;;;5200982;27;20095;-64
2021/07/06 06:37:09;;;;;;;64.12;13.43;;;;;;;;;;5200784;27;20182;-64
2021/07/06 06:39:35;;;;;;;63.75;13.35;;;;;;;;;;5181153;27;20117;-64
2021/07/06 06:42:01;;;;;;;9.15;5.30;;;;;;;;;;5200458;27;20097;-64
2021/07/06 06:44:27;;;;;;;125.30;20.10;;;;;;;;;;5200649;27;20433;-65
2021/07/06 06:46:53;;;;;;;31.73;7.70;;;;;;;;;;5200604;27;20179;-65
2021/07/06 06:49:18;;;;;;;107.43;22.15;;;;;;;;;;5200519;27;20090;-64
2021/07/06 06:51:44;;;;;;;90.68;28.00;;;;;;;;;;5200784;27;20124;-65
2021/07/06 06:54:10;;;;;;;325.50;84.37;;;;;;;;;;5200639;27;20124;-65
2021/07/06 06:56:39;;;;;;;26.27;9.10;;;;;;;;;;5200362;27;20097;-64
2021/07/06 06:59:07;;;;;;;10.77;5.12;;;;;;;;;;5200385;27;20393;-65
2021/07/06 07:01:33;;;;;;;100.80;27.62;;;;;;;;;;5200442;27;20086;-66
2021/07/06 07:03:59;;;;;;;25.62;12.98;;;;;;;;;;5200275;27;20477;-66
2021/07/06 07:06:25;;;;;;;201.82;42.08;;;;;;;;;;5200402;27;20098;-66
2021/07/06 07:08:50;;;;;;;7.20;4.10;;;;;;;;;;5200437;27;20101;-66
2021/07/06 07:11:16;;;;;;;15.65;4.37;;;;;;;;;;5200470;27;20168;-66
2021/07/06 07:13:42;;;;;;;45.65;10.93;;;;;;;;;;5200289;27;20179;-66
2021/07/06 07:16:08;;;;;;;90.68;19.25;;;;;;;;;;5200100;27;20262;-66
2021/07/06 07:18:34;;;;;;;4.50;3.72;;;;;;;;;;5200754;27;20074;-66
2021/07/06 07:21:00;;;;;;;79.78;17.10;;;;;;;;;;5200426;27;20484;-66
2021/07/06 07:23:26;;;;;;;11.63;4.68;;;;;;;;;;5200321;27;20451;-66
2021/07/06 07:25:52;;;;;;;4.00;3.60;;;;;;;;;;5200171;27;20153;-66
2021/07/06 07:28:18;;;;;;;7.20;5.25;;;;;;;;;;5200261;27;20085;-65
2021/07/06 07:30:43;;;;;;;37.47;7.03;;;;;;;;;;5200531;27;20183;-65
2021/07/06 07:33:09;;;;;;;59.75;12.07;;;;;;;;;;5200255;27;20093;-65
2021/07/06 07:35:35;;;;;;;48.28;14.15;;;;;;;;;;5200476;27;20077;-64
2021/07/06 07:38:01;;;;;;;154.87;32.70;;;;;;;;;;5200441;27;20097;-64
2021/07/06 07:40:27;;;;;;;13.85;5.40;;;;;;;;;;5180737;27;20168;-63
2021/07/06 07:42:53;;;;;;;41.55;12.40;;;;;;;;;;5200194;27;20516;-64
2021/07/06 07:45:19;;;;;;;9.98;5.75;;;;;;;;;;5200293;27;20573;-64
2021/07/06 07:47:45;;;;;;;7.05;3.50;;;;;;;;;;5200142;27;20500;-64
2021/07/06 07:50:11;;;;;;;127.15;22.62;;;;;;;;;;5199945;27;20089;-64
2021/07/06 07:52:36;;;;;;;26.08;12.43;;;;;;;;;;5200461;27;20503;-64
2021/07/06 07:55:06;;;;;;;68.32;18.50;;;;;;;;;;5200139;27;20089;-66
2021/07/06 07:57:32;;;;;;;17.70;7.25;;;;;;;;;;5200114;27;20089;-66
2021/07/06 07:59:58;;;;;;;24.95;10.65;;;;;;;;;;5200044;27;20455;-66
2021/07/06 08:02:24;;;;;;;17.33;6.10;;;;;;;;;;5199950;27;20176;-66
2021/07/06 08:04:51;;;;;;;11.52;4.72;;;;;;;;;;5200204;27;20085;-67
2021/07/06 08:07:17;;;;;;;5.05;2.80;;;;;;;;;;5200115;27;20082;-66
2021/07/06 08:09:43;;;;;;;49.58;12.75;;;;;;;;;;5200506;27;20089;-69
2021/07/06 08:12:10;;;;;;;42.13;13.43;;;;;;;;;;5200157;27;20401;-65
2021/07/06 08:14:36;;;;;;;54.08;14.43;;;;;;;;;;5200242;27;20477;-67
2021/07/06 08:17:02;;;;;;;13.98;4.85;;;;;;;;;;5200348;27;20074;-68
2021/07/06 08:19:28;;;;;;;39.15;10.52;;;;;;;;;;5200084;27;20159;-68
2021/07/06 08:21:53;;;;;;;8.75;5.72;;;;;;;;;;5181101;27;20113;-67
2021/07/06 08:24:19;;;;;;;25.55;5.32;;;;;;;;;;5200259;27;20178;-67
2021/07/06 08:26:46;;;;;;;236.18;53.80;;;;;;;;;;5200090;27;20191;-66
2021/07/06 08:29:12;;;;;;;136.32;34.13;;;;;;;;;;5200402;27;20197;-67
2021/07/06 08:31:38;;;;;;;189.45;48.05;;;;;;;;;;5200227;27;20188;-69
2021/07/06 08:34:04;;;;;;;128.12;36.28;;;;;;;;;;5199772;27;20082;-70
2021/07/06 08:36:30;;;;;;;12.95;5.25;;;;;;;;;;5200130;27;20117;-69
2021/07/06 08:38:56;;;;;;;31.85;12.82;;;;;;;;;;5199893;27;20078;-68
2021/07/06 08:41:22;;;;;;;299.83;64.25;;;;;;;;;;5200480;27;20101;-68
2021/07/06 08:43:51;;;;;;;607.30;132.90;;;;;;;;;;5181105;27;20073;-69
2021/07/06 08:46:18;;;;;;;216.35;55.90;;;;;;;;;;5181192;27;20074;-68
2021/07/06 08:48:45;;;;;;;72.47;29.08;;;;;;;;;;5200235;27;20164;-68
2021/07/06 08:51:11;;;;;;;344.75;73.25;;;;;;;;;;5199835;27;20086;-67
2021/07/06 08:53:37;;;;;;;33.22;12.93;;;;;;;;;;5163337;27;20104;-68
2021/07/06 08:56:03;;;;;;;138.02;42.33;;;;;;;;;;5200084;27;20098;-70
2021/07/06 08:58:29;;;;;;;367.42;85.57;;;;;;;;;;5199795;27;20093;-67
2021/07/06 09:00:55;;;;;;;313.95;82.65;;;;;;;;;;5180682;27;20479;-68
2021/07/06 09:03:20;;;;;;;670.20;157.15;;;;;;;;;;5200810;27;20098;-68
2021/07/06 09:05:46;;;;;;;309.00;79.87;;;;;;;;;;5181945;27;20077;-68
2021/07/06 09:08:16;;;;;;;182.05;54.95;;;;;;;;;;5201105;27;20108;-67
2021/07/06 09:10:42;;;;;;;361.80;98.70;;;;;;;;;;5201107;27;20516;-66
2021/07/06 09:13:28;;;;;;;39.38;14.95;;;;;;;;;;5201227;27;20428;-67
2021/07/06 09:15:55;;;;;;;81.78;23.75;;;;;;;;;;5201295;27;20150;-65
2021/07/06 09:18:21;;;;;;;44.50;12.25;;;;;;;;;;5201163;27;20188;-66
2021/07/06 09:21:16;;;;;;;213.52;51.28;;;;;;;;;;5201038;27;20070;-65
2021/07/06 09:23:43;;;;;;;304.98;78.70;;;;;;;;;;5187262;27;20177;-65
2021/07/06 09:26:25;;;;;;;122.50;30.98;;;;;;;;;;5200990;27;20097;-66
2021/07/06 09:28:55;;;;;;;191.48;44.97;;;;;;;;;;5200956;27;20445;-65
2021/07/06 09:31:37;;;;;;;114.80;27.70;;;;;;;;;;5201056;27;20440;-66
2021/07/06 09:34:07;;;;;;;233.50;58.13;;;;;;;;;;5201067;27;20089;-68
2021/07/06 09:36:45;;;;;;;48.83;14.07;;;;;;;;;;5182257;27;20092;-69
2021/07/06 09:39:16;;;;;;;12.50;5.03;;;;;;;;;;5200846;27;20101;-69
2021/07/06 09:41:51;;;;;;;146.20;38.50;;;;;;;;;;5181782;27;20115;-68
2021/07/06 09:44:27;;;;;;;135.85;32.92;;;;;;;;;;5200821;27;20224;-66
2021/07/06 09:46:56;;;;;;;149.80;32.33;;;;;;;;;;5201128;27;20086;-66
2021/07/06 09:49:24;;;;;;;254.15;56.03;;;;;;;;;;5181450;27;20071;-68
2021/07/06 09:51:50;;;;;;;309.98;70.15;;;;;;;;;;5201069;27;20073;-67
2021/07/06 09:54:35;;;;;;;135.70;41.33;;;;;;;;;;5201094;27;20143;-68
2021/07/06 09:57:30;;;;;;;15.45;8.93;;;;;;;;;;5181880;27;20163;-68
2021/07/06 10:00:07;;;;;;;43.35;14.20;;;;;;;;;;5201286;27;20164;-67
2021/07/06 10:02:33;;;;;;;55.42;16.83;;;;;;;;;;5200810;27;20477;-68
2021/07/06 10:05:00;;;;;;;68.28;19.33;;;;;;;;;;5164118;27;20094;-68
2021/07/06 10:07:26;;;;;;;87.37;23.02;;;;;;;;;;5164635;27;20105;-68
2021/07/06 10:09:53;;;;;;;71.20;22.23;;;;;;;;;;5200627;27;20166;-68
2021/07/06 10:12:20;;;;;;;61.70;20.98;;;;;;;;;;5164130;27;20487;-68
2021/07/06 10:14:46;;;;;;;88.47;26.58;;;;;;;;;;5181233;27;20089;-69
2021/07/06 10:17:13;;;;;;;297.95;68.18;;;;;;;;;;5201042;27;20054;-68
2021/07/06 10:19:39;;;;;;;60.45;22.85;;;;;;;;;;5200720;27;20169;-68
2021/07/06 10:22:08;;;;;;;92.25;26.37;;;;;;;;;;5200648;27;20170;-70
2021/07/06 10:24:38;;;;;;;82.32;29.60;;;;;;;;;;5181860;27;20190;-70
2021/07/06 10:27:07;;;;;;;52.72;15.20;;;;;;;;;;5164229;27;20092;-69
2021/07/06 10:29:36;;;;;;;59.58;16.90;;;;;;;;;;5165125;27;20102;-68
2021/07/06 10:32:03;;;;;;;121.68;32.85;;;;;;;;;;5200956;27;20069;-67
2021/07/06 10:34:29;;;;;;;105.55;24.77;;;;;;;;;;5200667;27;20082;-67
2021/07/06 10:36:58;;;;;;;62.80;20.45;;;;;;;;;;5181349;27;20105;-67
2021/07/06 10:39:47;;;;;;;37.42;18.30;;;;;;;;;;5200422;27;20483;-67
2021/07/06 10:42:13;;;;;;;78.30;26.37;;;;;;;;;;5200587;27;20448;-68
2021/07/06 10:44:42;;;;;;;133.60;36.60;;;;;;;;;;5181646;27;20423;-68
2021/07/06 10:47:37;;;;;;;148.68;38.78;;;;;;;;;;5200777;27;20488;-68
2021/07/06 13:10:40;;;;;;;15.80;6.93;;;;;;;;;;5242067;27;883435;-67
2021/07/06 13:13:08;;;;;;;18.55;4.82;;;;;;;;;;5265678;27;20088;-64
2021/07/06 13:15:36;;;;;;;20.95;5.80;;;;;;;;;;5250485;27;20101;-66
2021/07/06 13:18:03;;;;;;;70.85;20.85;;;;;;;;;;5243916;27;20489;-65
2021/07/06 13:20:32;;;;;;;34.38;10.32;;;;;;;;;;5243600;27;20152;-65
2021/07/06 13:22:58;;;;;;;63.75;19.00;;;;;;;;;;5224594;27;20069;-65
2021/07/06 13:57:39;;;;;;;8.52;4.12;;;;;;;;;;3945994;31;20096;-67
2021/07/06 14:00:05;;;;;;;7.87;3.58;;;;;;;;;;4381125;32;20185;-66
2021/07/06 14:02:32;;;;;;;72.18;21.65;;;;;;;;;;4387507;32;20544;-66
2021/07/06 14:04:57;;;;;;;15.32;4.35;;;;;;;;;;4370953;32;20182;-66
2021/07/06 14:07:23;;;;;;;13.13;6.68;;;;;;;;;;4360501;32;20489;-65
2021/07/06 14:09:49;;;;;;;25.83;8.05;;;;;;;;;;4374204;32;20133;-65
2021/07/06 14:12:16;;;;;;;27.42;6.60;;;;;;;;;;4373950;32;20113;-65
2021/07/06 14:14:42;;;;;;;32.17;8.88;;;;;;;;;;4371127;32;20125;-65
2021/07/06 14:17:08;;;;;;;8.73;4.97;;;;;;;;;;4373615;32;20106;-66
2021/07/06 14:19:34;;;;;;;16.05;6.62;;;;;;;;;;4374179;32;20548;-66
2021/07/06 14:22:00;;;;;;;26.52;7.20;;;;;;;;;;4374045;32;20140;-65
2021/07/06 14:24:26;;;;;;;38.15;10.15;;;;;;;;;;4373913;32;20225;-66
2021/07/06 14:26:53;;;;;;;82.72;20.15;;;;;;;;;;4373875;32;20133;-65
2021/07/06 14:29:19;;;;;;;81.07;20.37;;;;;;;;;;4374058;32;20136;-65
2021/07/06 14:31:45;;;;;;;46.00;13.10;;;;;;;;;;4373662;32;20550;-66
2021/07/06 14:34:10;;;;;;;31.48;11.98;;;;;;;;;;4372596;32;20125;-65
2021/07/06 14:36:37;;;;;;;51.30;14.80;;;;;;;;;;4373774;32;20113;-66
2021/07/06 14:39:04;;;;;;;49.88;16.95;;;;;;;;;;4372559;32;20122;-66
2021/07/06 14:41:30;;;;;;;27.27;8.30;;;;;;;;;;4373480;32;20175;-66
2021/07/06 14:43:56;;;;;;;14.70;5.45;;;;;;;;;;4372450;32;20125;-66
2021/07/06 14:46:22;;;;;;;10.27;5.18;;;;;;;;;;4373068;32;20125;-71
2021/07/06 14:48:48;;;;;;;15.23;3.55;;;;;;;;;;4374349;32;20647;-76
2021/07/06 14:51:14;;;;;;;26.05;9.18;;;;;;;;;;4373770;32;20128;-74
2021/07/06 14:53:40;;;;;;;5.90;2.95;;;;;;;;;;4374052;32;20129;-70
2021/07/06 14:56:05;;;;;;;55.72;15.95;;;;;;;;;;4373674;32;20110;-71
2021/07/06 14:58:31;;;;;;;45.33;10.38;;;;;;;;;;4373381;32;20472;-75
2021/07/06 15:00:57;;;;;;;16.98;4.80;;;;;;;;;;4360087;32;20101;-75
2021/07/06 15:03:23;;;;;;;29.27;8.20;;;;;;;;;;4373588;32;20121;-71
2021/07/06 15:05:49;;;;;;;32.80;10.40;;;;;;;;;;4364479;32;20184;-74
2021/07/06 15:08:15;;;;;;;54.53;15.60;;;;;;;;;;4366914;32;20647;-72
2021/07/06 15:10:41;;;;;;;55.00;11.35;;;;;;;;;;4350256;32;20124;-73
2021/07/06 15:13:09;;;;;;;17.02;6.78;;;;;;;;;;4362406;32;20547;-76
2021/07/06 15:15:37;;;;;;;4.28;3.00;;;;;;;;;;4361089;32;20122;-76
2021/07/06 15:18:03;;;;;;;9.80;2.83;;;;;;;;;;4343907;32;20105;-75
2021/07/06 15:20:29;;;;;;;10.15;3.33;;;;;;;;;;4363453;32;20169;-73
2021/07/06 15:22:55;;;;;;;13.05;3.45;;;;;;;;;;4363426;32;20098;-73
2021/07/06 15:25:22;;;;;;;4.40;2.28;;;;;;;;;;4363392;32;20117;-72
2021/07/06 15:27:49;;;;;;;22.73;6.28;;;;;;;;;;4349722;32;20102;-71
2021/07/06 15:30:16;;;;;;;8.15;3.92;;;;;;;;;;4349316;32;20121;-73
2021/07/06 15:32:41;;;;;;;29.67;4.68;;;;;;;;;;4349562;32;20114;-72
2021/07/06 15:35:08;;;;;;;9.38;3.45;;;;;;;;;;4356293;32;20604;-73
2021/07/06 15:37:34;;;;;;;20.15;6.45;;;;;;;;;;4361802;32;20125;-73
2021/07/06 15:40:00;;;;;;;4.75;2.25;;;;;;;;;;4337599;32;20121;-73
2021/07/06 15:42:26;;;;;;;8.00;2.67;;;;;;;;;;4361822;32;20548;-73
2021/07/06 15:44:52;;;;;;;9.88;2.33;;;;;;;;;;4363216;32;20149;-71
2021/07/06 15:47:18;;;;;;;10.45;3.17;;;;;;;;;;4362232;32;20107;-73
2021/07/06 15:49:44;;;;;;;5.22;1.95;;;;;;;;;;4362901;32;20110;-72
2021/07/06 15:52:10;;;;;;;8.15;2.40;;;;;;;;;;4363024;32;20437;-75
2021/07/06 15:54:36;;;;;;;5.47;2.58;;;;;;;;;;4349701;32;20516;-73
2021/07/06 15:57:02;;;;;;;6.93;2.92;;;;;;;;;;4361895;32;20216;-76
2021/07/06 15:59:28;;;;;;;11.40;2.83;;;;;;;;;;4348890;33;20481;-75
2021/07/06 16:01:54;;;;;;;13.13;2.35;;;;;;;;;;4334926;33;20111;-75
2021/07/06 16:04:20;;;;;;;4.78;1.95;;;;;;;;;;4361036;32;20109;-76
2021/07/06 16:06:47;;;;;;;4.90;1.80;;;;;;;;;;4361058;32;20622;-76
2021/07/06 16:09:14;;;;;;;2.70;1.40;;;;;;;;;;4362686;32;20417;-73
2021/07/06 16:11:40;;;;;;;3.55;2.00;;;;;;;;;;4361480;32;20117;-73
2021/07/06 16:14:05;;;;;;;4.12;1.80;;;;;;;;;;4361431;32;20579;-72
2021/07/06 16:16:32;;;;;;;13.25;4.10;;;;;;;;;;4363065;32;20114;-74
2021/07/06 16:18:58;;;;;;;4.57;2.28;;;;;;;;;;4360809;32;20216;-73
2021/07/06 16:21:24;;;;;;;5.15;2.40;;;;;;;;;;4360618;32;20094;-72
2021/07/06 16:23:50;;;;;;;6.37;2.37;;;;;;;;;;4361298;32;20469;-73
2021/07/06 16:26:16;;;;;;;5.43;1.83;;;;;;;;;;4359506;32;20129;-72
2021/07/06 16:28:42;;;;;;;7.30;1.92;;;;;;;;;;4363546;32;20131;-74
2021/07/06 16:31:10;;;;;;;7.55;1.90;;;;;;;;;;4362996;32;20218;-71
2021/07/06 16:33:36;;;;;;;6.15;2.20;;;;;;;;;;4361764;32;20125;-72
2021/07/06 16:36:06;;;;;;;5.70;2.00;;;;;;;;;;4348008;32;20122;-70
2021/07/06 16:38:44;;;;;;;6.28;1.70;;;;;;;;;;4362716;32;20522;-70
2021/07/06 16:41:12;;;;;;;8.95;2.20;;;;;;;;;;4361056;32;20114;-71
2021/07/06 16:43:38;;;;;;;10.60;2.72;;;;;;;;;;4358345;32;20099;-75
2021/07/06 16:46:05;;;;;;;3.20;1.60;;;;;;;;;;4348864;32;20113;-70
2021/07/06 16:48:32;;;;;;;18.77;2.47;;;;;;;;;;4359911;32;20106;-67
2021/07/06 17:58:15;;;;;;;3.75;1.98;;;;;;;;;;4227294;33;20572;-69
2021/07/06 18:00:41;;;;;;;2.10;1.90;;;;;;;;;;4240992;33;20143;-69
2021/07/06 18:06:06;;;;;;;4.07;3.05;;;;;;;;;;4265550;33;20100;-69
2021/07/06 18:08:32;;;;;;;4.97;2.55;;;;;;;;;;4271701;33;20186;-68
2021/07/06 18:10:58;;;;;;;8.45;2.95;;;;;;;;;;4316440;33;20130;-68
2021/07/06 18:13:25;;;;;;;4.15;2.42;;;;;;;;;;4330615;33;20098;-68
2021/07/06 18:15:51;;;;;;;17.10;3.00;;;;;;;;;;4326975;33;20150;-68
2021/07/06 18:18:17;;;;;;;5.62;2.37;;;;;;;;;;4331590;33;20101;-70
2021/07/06 18:20:44;;;;;;;4.55;2.22;;;;;;;;;;4329984;33;20111;-67
2021/07/06 18:23:10;;;;;;;7.50;2.40;;;;;;;;;;4329801;33;20115;-67
2021/07/06 18:25:36;;;;;;;5.00;2.50;;;;;;;;;;4329809;33;20148;-67
2021/07/06 18:28:03;;;;;;;6.47;2.90;;;;;;;;;;4330816;33;20105;-67
2021/07/06 18:30:29;;;;;;;10.85;2.90;;;;;;;;;;4331895;33;20204;-67
2021/07/06 18:32:55;;;;;;;7.25;2.85;;;;;;;;;;4331932;33;20119;-67
2021/07/06 18:35:21;;;;;;;7.80;3.65;;;;;;;;;;4317177;33;20122;-67